createdAt,value
2023-01-19T00:00:54.476Z,100616.32
2023-01-19T00:03:21.824Z,100619.45
2023-01-19T00:05:50.003Z,100620.70
2023-01-19T00:08:18.173Z,100610.79
2023-01-19T00:10:47.157Z,100615.52
2023-01-19T00:13:14.507Z,100618.04
2023-01-19T00:15:41.554Z,100612.28
2023-01-19T00:18:10.563Z,100605.92
2023-01-19T00:20:39.550Z,100611.95
2023-01-19T00:23:09.597Z,100616.24
2023-01-19T00:25:41.750Z,100620.35
2023-01-19T00:28:12.708Z,100620.73
2023-01-19T00:30:42.884Z,100617.80
2023-01-19T00:33:10.791Z,100619.14
2023-01-19T00:35:38.307Z,100620.15
2023-01-19T00:38:10.125Z,100631.20
2023-01-19T00:40:37.417Z,100632.38
2023-01-19T00:43:04.850Z,100627.14
2023-01-19T00:45:32.680Z,100627.44
2023-01-19T00:47:59.908Z,100628.59
2023-01-19T00:50:27.768Z,100636.27
2023-01-19T00:52:55.271Z,100638.52
2023-01-19T00:55:22.713Z,100640.45
2023-01-19T00:57:50.029Z,100641.98
2023-01-19T01:00:20.526Z,100634.13
2023-01-19T01:02:49.283Z,100617.76
2023-01-19T01:05:17.627Z,100623.45
2023-01-19T01:07:49.073Z,100629.08
2023-01-19T01:10:20.089Z,100631.46
2023-01-19T01:12:57.411Z,100623.39
2023-01-19T01:15:26.905Z,100617.83
2023-01-19T01:17:54.526Z,100623.45
2023-01-19T01:20:23.744Z,100619.16
2023-01-19T01:30:41.346Z,100602.68
2023-01-19T01:33:08.749Z,100603.88
2023-01-19T01:35:35.738Z,100612.30
2023-01-19T01:38:03.119Z,100615.99
2023-01-19T01:40:30.460Z,100614.83
2023-01-19T01:42:57.904Z,100610.16
2023-01-19T01:45:31.394Z,100615.69
2023-01-19T01:48:02.239Z,100611.91
2023-01-19T01:50:30.531Z,100605.70
2023-01-19T01:53:07.149Z,100601.60
2023-01-19T01:55:44.418Z,100602.85
2023-01-19T01:58:11.668Z,100611.05
2023-01-19T02:00:57.438Z,100619.01
2023-01-19T02:03:24.925Z,100615.34
2023-01-19T02:05:52.552Z,100616.76
2023-01-19T02:08:40.791Z,100612.58
2023-01-19T02:11:26.893Z,100606.67
2023-01-19T02:13:54.041Z,100599.52
2023-01-19T02:16:21.142Z,100596.73
2023-01-19T02:18:48.439Z,100598.47
2023-01-19T02:21:52.411Z,100596.23
2023-01-19T02:24:19.741Z,100596.66
2023-01-19T02:26:47.619Z,100601.84
2023-01-19T02:29:19.128Z,100598.92
2023-01-19T02:31:46.117Z,100591.27
2023-01-19T02:34:17.323Z,100590.03
2023-01-19T02:36:44.471Z,100597.38
2023-01-19T02:39:11.618Z,100598.48
2023-01-19T02:41:43.523Z,100604.08
2023-01-19T02:44:10.660Z,100625.31
2023-01-19T02:46:38.498Z,100619.27
2023-01-19T02:49:05.547Z,100615.39
2023-01-19T02:51:32.746Z,100613.42
2023-01-19T02:54:22.472Z,100612.20
2023-01-19T02:56:49.623Z,100613.83
2023-01-19T02:59:37.915Z,100609.94
2023-01-19T03:02:27.115Z,100607.58
2023-01-19T03:05:45.793Z,100608.67
2023-01-19T03:08:55.132Z,100607.40
2023-01-19T03:11:22.205Z,100610.34
2023-01-19T03:14:04.890Z,100614.13
2023-01-19T03:16:38.109Z,100615.41
2023-01-19T03:19:31.767Z,100617.59
2023-01-19T03:22:01.985Z,100617.58
2023-01-19T03:24:29.953Z,100614.27
2023-01-19T03:27:00.425Z,100620.30
2023-01-19T03:29:28.989Z,100622.91
2023-01-19T03:31:56.742Z,100625.77
2023-01-19T03:34:24.282Z,100624.49
2023-01-19T03:36:54.144Z,100622.39
2023-01-19T03:39:25.345Z,100623.59
2023-01-19T03:41:54.296Z,100628.22
2023-01-19T03:44:21.546Z,100629.06
2023-01-19T03:46:50.700Z,100626.98
2023-01-19T03:49:17.880Z,100637.46
2023-01-19T03:51:44.989Z,100650.23
2023-01-19T03:54:12.177Z,100653.25
2023-01-19T03:56:39.301Z,100652.13
2023-01-19T03:59:07.812Z,100652.14
2023-01-19T04:01:36.103Z,100658.95
2023-01-19T04:04:03.221Z,100651.48
2023-01-19T04:06:30.345Z,100656.41
2023-01-19T04:08:57.491Z,100658.83
2023-01-19T04:11:24.652Z,100663.85
2023-01-19T04:13:51.894Z,100663.05
2023-01-19T04:16:21.491Z,100668.04
2023-01-19T04:18:48.876Z,100673.92
2023-01-19T04:21:16.111Z,100675.55
2023-01-19T04:23:44.619Z,100677.89
2023-01-19T04:26:11.706Z,100681.81
2023-01-19T04:28:38.932Z,100687.30
2023-01-19T04:31:06.678Z,100690.09
2023-01-19T04:33:33.969Z,100689.16
2023-01-19T04:36:01.162Z,100692.45
2023-01-19T04:38:28.419Z,100698.58
2023-01-19T04:40:55.960Z,100701.09
2023-01-19T04:43:23.845Z,100696.45
2023-01-19T04:45:51.294Z,100696.30
2023-01-19T04:48:18.673Z,100701.34
2023-01-19T04:50:46.317Z,100706.44
2023-01-19T04:53:13.981Z,100708.05
2023-01-19T04:55:41.352Z,100703.25
2023-01-19T04:58:08.346Z,100704.63
2023-01-19T05:00:35.793Z,100704.91
2023-01-19T05:03:03.388Z,100705.50
2023-01-19T05:05:30.856Z,100703.55
2023-01-19T05:07:58.003Z,100709.25
2023-01-19T05:10:25.574Z,100711.17
2023-01-19T05:12:52.815Z,100714.36
2023-01-19T05:15:19.972Z,100720.45
2023-01-19T05:17:47.122Z,100726.59
2023-01-19T05:20:16.406Z,100733.40
2023-01-19T05:22:48.860Z,100738.27
2023-01-19T05:25:16.215Z,100744.27
2023-01-19T05:27:43.498Z,100745.69
2023-01-19T05:30:12.044Z,100748.79
2023-01-19T05:32:39.822Z,100749.95
2023-01-19T05:35:07.815Z,100746.55
2023-01-19T05:37:34.966Z,100742.80
2023-01-19T05:40:02.212Z,100746.30
2023-01-19T05:42:30.832Z,100750.08
2023-01-19T05:44:59.796Z,100757.05
2023-01-19T05:47:26.950Z,100758.07
2023-01-19T05:49:54.095Z,100756.42
2023-01-19T05:52:22.079Z,100758.36
2023-01-19T05:54:49.228Z,100756.23
2023-01-19T05:57:16.384Z,100765.00
2023-01-19T05:59:43.626Z,100763.10
2023-01-19T06:02:10.882Z,100748.80
2023-01-19T06:04:38.057Z,100749.23
2023-01-19T06:07:07.070Z,100742.89
2023-01-19T06:09:34.173Z,100751.49
2023-01-19T06:12:01.646Z,100758.33
2023-01-19T06:14:28.702Z,100765.74
2023-01-19T06:16:56.030Z,100773.63
2023-01-19T06:19:23.104Z,100783.25
2023-01-19T06:21:52.518Z,100790.76
2023-01-19T06:24:19.976Z,100789.45
2023-01-19T06:26:47.156Z,100794.30
2023-01-19T06:29:14.897Z,100797.39
2023-01-19T06:31:42.638Z,100797.07
2023-01-19T06:34:09.862Z,100795.98
2023-01-19T06:36:37.117Z,100789.83
2023-01-19T06:39:06.152Z,100781.08
2023-01-19T06:41:33.986Z,100779.52
2023-01-19T06:44:01.536Z,100781.06
2023-01-19T06:46:29.200Z,100782.17
2023-01-19T06:48:56.451Z,100781.91
2023-01-19T06:51:24.123Z,100776.69
2023-01-19T06:53:51.273Z,100778.61
2023-01-19T06:56:18.512Z,100775.79
2023-01-19T06:58:50.797Z,100778.23
2023-01-19T07:01:18.031Z,100780.42
2023-01-19T07:03:46.870Z,100781.65
2023-01-19T07:06:15.104Z,100780.58
2023-01-19T07:08:42.212Z,100784.55
2023-01-19T07:11:26.218Z,100784.50
2023-01-19T07:13:58.718Z,100786.45
2023-01-19T07:16:26.105Z,100779.90
2023-01-19T07:18:53.328Z,100784.70
2023-01-19T07:21:20.736Z,100793.64
2023-01-19T07:23:51.786Z,100793.95
2023-01-19T07:26:21.646Z,100801.66
2023-01-19T07:28:49.194Z,100804.73
2023-01-19T07:31:16.541Z,100806.84
2023-01-19T07:33:44.020Z,100810.92
2023-01-19T07:36:11.289Z,100811.80
2023-01-19T07:38:39.230Z,100813.89
2023-01-19T07:41:08.073Z,100815.90
2023-01-19T07:43:35.238Z,100810.61
2023-01-19T07:46:05.318Z,100813.46
2023-01-19T07:48:32.573Z,100817.20
2023-01-19T07:51:11.045Z,100820.95
2023-01-19T07:53:40.324Z,100820.93
2023-01-19T07:56:08.024Z,100815.04
2023-01-19T07:58:35.157Z,100814.03
2023-01-19T08:01:09.452Z,100813.14
2023-01-19T08:03:36.905Z,100812.92
2023-01-19T08:06:05.687Z,100814.85
2023-01-19T08:08:33.470Z,100814.05
2023-01-19T08:11:00.707Z,100815.84
2023-01-19T08:13:28.116Z,100815.24
2023-01-19T08:15:55.245Z,100818.98
2023-01-19T08:18:22.323Z,100823.08
2023-01-19T08:20:49.527Z,100828.15
2023-01-19T08:23:18.366Z,100830.71
2023-01-19T08:25:46.209Z,100824.79
2023-01-19T08:28:15.301Z,100822.21
2023-01-19T08:30:44.511Z,100815.45
2023-01-19T08:33:12.648Z,100812.57
2023-01-19T08:35:49.124Z,100815.27
2023-01-19T08:38:17.278Z,100822.86
2023-01-19T08:40:44.637Z,100820.27
2023-01-19T08:43:13.634Z,100816.58
2023-01-19T08:45:42.661Z,100811.02
2023-01-19T08:48:10.504Z,100802.33
2023-01-19T08:50:37.631Z,100800.84
2023-01-19T08:53:07.655Z,100795.20
2023-01-19T08:55:35.833Z,100791.95
2023-01-19T08:58:06.610Z,100792.38
2023-01-19T09:00:34.563Z,100788.48
2023-01-19T09:03:03.589Z,100788.59
2023-01-19T09:05:37.263Z,100783.48
2023-01-19T09:08:06.279Z,100787.66
2023-01-19T09:10:36.195Z,100791.73
2023-01-19T09:13:05.331Z,100790.27
2023-01-19T09:15:34.284Z,100785.83
2023-01-19T09:18:02.642Z,100785.00
2023-01-19T09:20:31.403Z,100788.04
2023-01-19T09:22:58.642Z,100783.77
2023-01-19T09:25:25.794Z,100788.69
2023-01-19T09:27:53.313Z,100781.80
2023-01-19T09:30:20.497Z,100785.10
2023-01-19T09:32:47.572Z,100788.20
2023-01-19T09:35:15.315Z,100783.52
2023-01-19T09:37:46.469Z,100780.56
2023-01-19T09:40:14.123Z,100783.73
2023-01-19T09:42:43.801Z,100781.03
2023-01-19T09:45:16.987Z,100780.75
2023-01-19T09:47:44.127Z,100781.67
2023-01-19T09:50:25.969Z,100777.92
2023-01-19T09:53:07.514Z,100785.71
2023-01-19T09:55:34.605Z,100783.30
2023-01-19T09:58:02.202Z,100787.74
2023-01-19T10:00:29.643Z,100784.78
2023-01-19T10:03:27.793Z,100787.92
2023-01-19T10:05:56.310Z,100781.85
2023-01-19T10:08:47.898Z,100782.29
2023-01-19T10:11:52.653Z,100777.35
2023-01-19T10:14:40.415Z,100776.79
2023-01-19T10:17:22.163Z,100770.95
2023-01-19T10:19:50.232Z,100772.73
2023-01-19T10:22:24.676Z,100767.42
2023-01-19T10:25:02.385Z,100771.38
2023-01-19T10:27:34.213Z,100773.59
2023-01-19T10:30:01.793Z,100767.83
2023-01-19T10:32:34.268Z,100770.23
2023-01-19T10:35:01.487Z,100768.11
2023-01-19T10:37:38.268Z,100766.96
2023-01-19T10:40:11.912Z,100764.30
2023-01-19T10:42:40.465Z,100763.77
2023-01-19T10:45:21.263Z,100764.15
2023-01-19T10:47:48.925Z,100766.29
2023-01-19T10:50:25.338Z,100765.97
2023-01-19T10:52:54.256Z,100764.05
2023-01-19T10:55:25.888Z,100771.60
2023-01-19T10:57:53.809Z,100765.92
2023-01-19T11:00:31.741Z,100767.70
2023-01-19T11:02:59.341Z,100765.09
2023-01-19T11:05:28.805Z,100767.68
2023-01-19T11:07:56.920Z,100766.60
2023-01-19T11:10:26.010Z,100772.56
2023-01-19T11:12:56.032Z,100774.02
2023-01-19T11:15:29.532Z,100772.55
2023-01-19T11:17:56.579Z,100772.04
2023-01-19T11:20:26.013Z,100772.02
2023-01-19T11:23:05.750Z,100771.89
2023-01-19T11:25:34.413Z,100775.18
2023-01-19T11:28:01.584Z,100783.69
2023-01-19T11:30:28.702Z,100783.73
2023-01-19T11:32:56.640Z,100783.68
2023-01-19T11:35:38.305Z,100785.07
2023-01-19T11:38:18.642Z,100784.77
2023-01-19T11:41:06.924Z,100793.56
2023-01-19T11:43:48.268Z,100789.86
2023-01-19T11:46:16.522Z,100788.84
2023-01-19T11:49:03.654Z,100787.12
2023-01-19T11:51:47.586Z,100783.23
2023-01-19T11:54:20.132Z,100786.85
2023-01-19T11:56:48.130Z,100784.79
2023-01-19T11:59:15.187Z,100779.07
2023-01-19T12:01:46.824Z,100776.48
2023-01-19T12:04:15.182Z,100777.09
2023-01-19T12:06:45.026Z,100774.67
2023-01-19T12:09:23.770Z,100775.59
2023-01-19T12:12:26.287Z,100777.71
2023-01-19T12:15:01.963Z,100773.30
2023-01-19T12:17:49.077Z,100773.66
2023-01-19T12:20:19.323Z,100773.68
2023-01-19T12:22:50.846Z,100773.98
2023-01-19T12:25:53.943Z,100777.38
2023-01-19T12:28:26.338Z,100771.70
2023-01-19T12:30:53.872Z,100774.98
2023-01-19T12:33:34.209Z,100778.67
2023-01-19T12:36:05.321Z,100782.76
2023-01-19T12:38:54.953Z,100781.67
2023-01-19T12:41:23.172Z,100780.36
2023-01-19T12:44:10.581Z,100784.52
2023-01-19T12:46:38.953Z,100786.16
2023-01-19T12:49:29.142Z,100783.95
2023-01-19T12:52:13.734Z,100783.53
2023-01-19T12:54:43.056Z,100780.55
2023-01-19T12:57:28.397Z,100777.70
2023-01-19T13:00:00.686Z,100774.30
2023-01-19T13:02:28.299Z,100778.98
2023-01-19T13:05:33.599Z,100784.44
2023-01-19T13:08:07.060Z,100787.38
2023-01-19T13:11:12.571Z,100786.91
2023-01-19T13:13:49.077Z,100787.04
2023-01-19T13:16:20.735Z,100792.35
2023-01-19T13:19:06.865Z,100791.33
2023-01-19T13:21:44.689Z,100789.35
2023-01-19T13:24:16.629Z,100792.96
2023-01-19T13:26:57.988Z,100792.75
2023-01-19T13:29:34.177Z,100796.28
2023-01-19T13:32:06.159Z,100796.34
2023-01-19T13:34:40.515Z,100804.04
2023-01-19T13:37:09.405Z,100804.35
2023-01-19T13:39:38.106Z,100800.34
2023-01-19T13:42:33.041Z,100801.73
2023-01-19T13:45:01.345Z,100805.52
2023-01-19T13:47:44.018Z,100816.12
2023-01-19T13:50:27.172Z,100813.60
2023-01-19T13:52:55.873Z,100811.83
2023-01-19T13:55:23.765Z,100811.02
2023-01-19T13:57:51.631Z,100816.88
2023-01-19T14:00:38.748Z,100822.50
2023-01-19T14:03:15.383Z,100822.02
2023-01-19T14:05:43.523Z,100818.55
2023-01-19T14:08:13.782Z,100818.45
2023-01-19T14:11:02.534Z,100817.20
2023-01-19T14:13:34.266Z,100809.30
2023-01-19T14:16:17.127Z,100811.98
2023-01-19T14:18:44.234Z,100816.91
2023-01-19T14:21:14.863Z,100817.59
2023-01-19T14:23:49.975Z,100816.23
2023-01-19T14:26:40.156Z,100816.81
2023-01-19T14:29:10.634Z,100819.80
2023-01-19T14:31:52.889Z,100820.68
2023-01-19T14:34:42.975Z,100823.61
2023-01-19T14:37:22.438Z,100819.94
2023-01-19T14:39:55.526Z,100826.83
2023-01-19T14:42:31.121Z,100833.23
2023-01-19T14:45:00.257Z,100837.61
2023-01-19T14:47:46.606Z,100841.87
2023-01-19T14:50:34.350Z,100845.50
2023-01-19T14:53:03.383Z,100841.88
2023-01-19T14:55:39.930Z,100841.79
2023-01-19T14:58:17.644Z,100845.80
2023-01-19T15:00:45.186Z,100848.52
2023-01-19T15:03:12.355Z,100844.45
2023-01-19T15:05:40.138Z,100846.69
2023-01-19T15:08:07.372Z,100851.85
2023-01-19T15:10:35.347Z,100853.86
2023-01-19T15:13:02.375Z,100865.85
2023-01-19T15:15:34.043Z,100873.55
2023-01-19T15:18:02.320Z,100881.27
2023-01-19T15:20:29.535Z,100883.45
2023-01-19T15:22:56.653Z,100883.22
2023-01-19T15:25:27.172Z,100884.77
2023-01-19T15:27:56.485Z,100887.28
2023-01-19T15:30:29.750Z,100895.85
2023-01-19T15:32:57.203Z,100893.51
2023-01-19T15:35:24.355Z,100893.33
2023-01-19T15:37:51.643Z,100891.35
2023-01-19T15:40:19.602Z,100890.80
2023-01-19T15:42:46.929Z,100891.50
2023-01-19T15:45:39.768Z,100889.62
2023-01-19T15:48:16.042Z,100889.66
2023-01-19T15:50:44.656Z,100885.90
2023-01-19T15:53:16.670Z,100887.15
2023-01-19T15:55:43.964Z,100887.33
2023-01-19T15:58:13.893Z,100885.53
2023-01-19T16:00:41.311Z,100892.11
2023-01-19T16:03:08.802Z,100894.19
2023-01-19T16:05:42.808Z,100893.88
2023-01-19T16:08:11.748Z,100896.02
2023-01-19T16:10:39.871Z,100894.75
2023-01-19T16:13:06.929Z,100892.01
2023-01-19T16:15:37.639Z,100892.42
2023-01-19T16:18:05.111Z,100892.05
2023-01-19T16:20:32.249Z,100887.54
2023-01-19T16:23:13.847Z,100888.69
2023-01-19T16:25:42.016Z,100885.73
2023-01-19T16:28:09.358Z,100889.30
2023-01-19T16:30:36.479Z,100895.30
2023-01-19T16:33:05.526Z,100907.05
2023-01-19T16:35:32.651Z,100916.01
2023-01-19T16:37:59.694Z,100918.45
2023-01-19T16:40:26.848Z,100914.44
2023-01-19T16:42:54.219Z,100915.50
2023-01-19T16:45:21.356Z,100918.66
2023-01-19T16:47:50.958Z,100918.30
2023-01-19T16:50:18.633Z,100920.57
2023-01-19T16:52:45.952Z,100919.02
2023-01-19T16:55:13.136Z,100915.04
2023-01-19T16:57:40.338Z,100910.27
2023-01-19T17:00:12.540Z,100911.65
2023-01-19T17:02:40.255Z,100912.17
2023-01-19T17:05:07.983Z,100912.53
2023-01-19T17:07:35.139Z,100915.44
2023-01-19T17:10:02.411Z,100920.89
2023-01-19T17:12:32.080Z,100920.73
2023-01-19T17:14:59.448Z,100922.84
2023-01-19T17:17:26.801Z,100928.81
2023-01-19T17:19:53.839Z,100923.14
2023-01-19T17:22:21.007Z,100919.80
2023-01-19T17:24:48.458Z,100921.32
2023-01-19T17:27:16.428Z,100920.40
2023-01-19T17:29:43.643Z,100915.98
2023-01-19T17:32:10.928Z,100918.98
2023-01-19T17:34:38.382Z,100923.45
2023-01-19T17:37:05.462Z,100924.45
2023-01-19T17:39:32.884Z,100926.21
2023-01-19T17:42:00.037Z,100919.56
2023-01-19T17:44:27.188Z,100912.76
2023-01-19T17:46:54.335Z,100908.34
2023-01-19T17:49:21.443Z,100909.23
2023-01-19T17:51:53.695Z,100912.59
2023-01-19T17:54:20.947Z,100914.27
2023-01-19T17:56:48.370Z,100914.36
2023-01-19T17:59:15.516Z,100916.17
2023-01-19T18:01:44.776Z,100921.73
2023-01-19T18:04:11.920Z,100925.73
2023-01-19T18:06:39.334Z,100923.05
2023-01-19T18:09:07.824Z,100919.50
2023-01-19T18:11:35.055Z,100922.11
2023-01-19T18:14:02.409Z,100921.14
2023-01-19T18:16:30.765Z,100921.61
2023-01-19T18:18:58.243Z,100926.67
2023-01-19T18:21:27.490Z,100927.73
2023-01-19T18:24:02.434Z,100925.17
2023-01-19T18:26:30.151Z,100918.65
2023-01-19T18:28:57.806Z,100917.98
2023-01-19T18:31:25.704Z,100920.88
2023-01-19T18:33:53.433Z,100922.33
2023-01-19T18:36:21.132Z,100926.05
2023-01-19T18:38:49.085Z,100928.45
2023-01-19T18:41:17.892Z,100928.42
2023-01-19T18:43:45.368Z,100927.69
2023-01-19T18:46:13.143Z,100922.91
2023-01-19T18:48:40.484Z,100927.31
2023-01-19T18:51:08.907Z,100928.16
2023-01-19T18:53:36.349Z,100932.80
2023-01-19T18:56:03.845Z,100931.63
2023-01-19T18:58:31.994Z,100935.14
2023-01-19T19:01:00.125Z,100933.64
2023-01-19T19:03:27.529Z,100932.02
2023-01-19T19:05:54.930Z,100934.20
2023-01-19T19:08:22.340Z,100940.41
2023-01-19T19:10:49.651Z,100936.17
2023-01-19T19:13:17.569Z,100934.16
2023-01-19T19:15:44.984Z,100935.89
2023-01-19T19:18:14.259Z,100937.67
2023-01-19T19:20:43.535Z,100933.84
2023-01-19T19:23:11.386Z,100932.70
2023-01-19T19:25:38.740Z,100932.13
2023-01-19T19:28:05.988Z,100931.13
2023-01-19T19:30:34.929Z,100930.44
2023-01-19T19:33:02.772Z,100929.77
2023-01-19T19:35:29.918Z,100929.80
2023-01-19T19:37:58.017Z,100926.11
2023-01-19T19:40:28.919Z,100928.13
2023-01-19T19:42:58.608Z,100926.73
2023-01-19T19:45:26.488Z,100925.73
2023-01-19T19:47:53.859Z,100930.83
2023-01-19T19:50:20.987Z,100932.55
2023-01-19T19:52:48.074Z,100936.38
2023-01-19T19:55:15.448Z,100934.63
2023-01-19T19:57:42.881Z,100935.71
2023-01-19T20:00:11.125Z,100929.73
2023-01-19T20:02:38.814Z,100927.06
2023-01-19T20:05:06.391Z,100931.71
2023-01-19T20:07:33.826Z,100929.02
2023-01-19T20:10:00.985Z,100934.36
2023-01-19T20:12:28.131Z,100930.20
2023-01-19T20:14:55.565Z,100933.70
2023-01-19T20:17:23.459Z,100933.31
2023-01-19T20:19:50.587Z,100937.80
2023-01-19T20:22:17.776Z,100938.02
2023-01-19T20:24:45.083Z,100946.66
2023-01-19T20:27:12.384Z,100950.29
2023-01-19T20:29:39.745Z,100952.89
2023-01-19T20:32:07.352Z,100961.71
2023-01-19T20:34:35.852Z,100957.25
2023-01-19T20:37:04.949Z,100954.98
2023-01-19T20:39:34.130Z,100952.33
2023-01-19T20:42:01.766Z,100952.25
2023-01-19T20:44:29.152Z,100954.16
2023-01-19T20:46:56.635Z,100955.19
2023-01-19T20:49:23.955Z,100953.08
2023-01-19T20:51:52.373Z,100954.73
2023-01-19T20:54:20.843Z,100958.98
2023-01-19T20:56:48.296Z,100963.85
2023-01-19T20:59:15.650Z,100964.77
2023-01-19T21:01:43.103Z,100969.48
2023-01-19T21:04:11.195Z,100969.77
2023-01-19T21:06:38.821Z,100963.70
2023-01-19T21:09:07.058Z,100958.06
2023-01-19T21:11:34.383Z,100953.23
2023-01-19T21:14:01.743Z,100954.78
2023-01-19T21:16:30.335Z,100954.73
2023-01-19T21:18:57.643Z,100956.55
2023-01-19T21:21:30.833Z,100953.48
2023-01-19T21:24:02.185Z,100954.56
2023-01-19T21:26:33.765Z,100964.55
2023-01-19T21:29:02.028Z,100972.78
2023-01-19T21:31:29.399Z,100975.30
2023-01-19T21:33:59.720Z,100971.27
2023-01-19T21:36:27.260Z,100967.95
2023-01-19T21:39:00.784Z,100966.80
2023-01-19T21:41:28.666Z,100968.38
2023-01-19T21:43:55.934Z,100970.42
2023-01-19T21:46:29.646Z,100974.05
2023-01-19T21:48:57.650Z,100970.54
2023-01-19T21:51:25.104Z,100974.06
2023-01-19T21:54:00.347Z,100970.17
2023-01-19T21:56:28.196Z,100968.70
2023-01-19T21:58:56.387Z,100967.45
2023-01-19T22:02:33.257Z,100971.26
2023-01-19T22:05:06.805Z,100977.52
2023-01-19T22:07:33.841Z,100978.51
2023-01-19T22:10:01.210Z,100980.41
2023-01-19T22:12:28.465Z,100976.86
2023-01-19T22:14:55.517Z,100974.98
2023-01-19T22:17:22.651Z,100975.95
2023-01-19T22:19:49.914Z,100976.96
2023-01-19T22:22:17.053Z,100975.10
2023-01-19T22:24:46.811Z,100979.18
2023-01-19T22:27:14.016Z,100981.88
2023-01-19T22:29:41.948Z,100987.38
2023-01-19T22:32:09.039Z,100985.02
2023-01-19T22:34:36.286Z,100983.80
2023-01-19T22:37:03.469Z,100984.33
2023-01-19T22:39:30.591Z,100982.92
2023-01-19T22:41:57.849Z,100980.52
2023-01-19T22:44:24.986Z,100986.71
2023-01-19T22:46:54.602Z,100994.64
2023-01-19T22:49:21.958Z,101002.63
2023-01-19T22:51:49.129Z,100998.49
2023-01-19T22:54:16.149Z,100997.81
2023-01-19T22:56:43.404Z,101001.08
2023-01-19T22:59:10.558Z,100996.77
2023-01-19T23:01:40.712Z,100993.27
2023-01-19T23:04:08.433Z,100996.10
2023-01-19T23:06:36.434Z,100999.81
2023-01-19T23:09:08.388Z,100997.31
2023-01-19T23:11:37.192Z,100998.96
2023-01-19T23:14:06.415Z,100998.34
2023-01-19T23:16:34.593Z,100997.16
2023-01-19T23:19:01.852Z,100993.13
2023-01-19T23:21:29.832Z,100994.96
2023-01-19T23:23:58.337Z,100994.35
2023-01-19T23:26:25.792Z,101000.80
2023-01-19T23:28:54.656Z,101003.25
2023-01-19T23:31:23.711Z,101004.91
2023-01-19T23:33:52.065Z,101010.14
2023-01-19T23:36:19.620Z,101006.92
2023-01-19T23:38:51.026Z,101016.64
2023-01-19T23:41:18.959Z,101017.48
2023-01-19T23:43:46.101Z,101018.48
2023-01-19T23:46:13.719Z,101023.27
2023-01-19T23:48:41.133Z,101029.02
2023-01-19T23:51:09.685Z,101029.96
2023-01-19T23:53:37.012Z,101025.92
2023-01-19T23:56:12.080Z,101028.40
2023-01-19T23:58:39.232Z,101033.56
